Pagrindinis puslapis
METAR-TAF:

METAR-TAF

Oro uostai :

Rerusas, Norvegija

platuma: 62-35N, ilguma: 011-21E, Aukštis: 626 m

Dabartinis oras

Ataskaita buvo paskelbta 17 minutes, ne 10:20 UTC
Vėjas 8 kt iš Vakarų
Temperatūra 2°C
Drėgmė 75%
Slėgis 982 hPa
Matomumas 10 km arba daugiau
Mažai debesys ne aukštis 3000 ft
Išsisklaidę debesys ne aukštis 5400 ft

METAR: ENRO 221020Z 27008KT 9999 FEW030 SCT054 02/M02 Q0982

Laikas: 12:37 (10:37 UTC)

Prognozė

Ataskaita buvo paskelbta 2 valandos ir 37 minutes, ne 08:00 UTC
Prognozė galioja nuo 22 metu 09 UTC su 22 metu 18 UTC
Vėjas 12 kt iš Vakarų
Matomumas 10 km arba daugiau
Mažai debesys ne aukštis 1500 ft
Su prošvaistėmis ne aukštis 4500 ft
Laikinai
nuo 22 metu 09 UTC su 22 metu 18 UTC
Vėjas 15 kt iš Šiaurės Vakarų su gūsio iki 28 kt
Matomumas: 2000 m
ne aukštis 1000 ft
sniegas

TAF: ENRO 220800Z 2209/2218 28012KT 9999 FEW015 BKN045 TEMPO 2209/2218 31015G28KT 2000 SHSN VV010

Orai ataskaitas ir orų prognozės (METAR, TAF).

turimą stotys yra geltonos ir raudonos taškus žemėlapyje.

Perkelti pele per norėdami pamatyti stoties vardą.

Tada spustelėkite, norėdami matyti oro stebėjimo ir prognozės.

Norėdami pakeisti žemėlapį: spustelėkite ant žalios mygtukų su juodo kryžiaus žemyn,; žalią mygtuką su brūkšneliu, jei norite nutolinti; arba žalių rodyklių gretimoms žemėlapius.


METAR-TAF: